Time;durP1;ratioP1;P1;durP2;ratioP2;P2;SDS_P1;SDS_P2;PMS_P1;PMS_P2;Temp;Humidity;BMP_temperature;BMP_pressure;BME280_temperature;BME280_humidity;BME280_pressure;Samples;Min_cycle;Max_cycle;Signal;HPM_P1;HPM_P2
2021/11/14 00:01:04;;;;;;;92.25;41.15;;;;;;;0.78;96.16;93442.72;5071557;28;20040;-82
2021/11/14 00:03:33;;;;;;;75.90;37.85;;;;;;;0.70;98.54;93439.31;5071503;28;20503;-81
2021/11/14 00:05:59;;;;;;;82.65;36.13;;;;;;;0.80;98.71;93450.94;5071409;28;20056;-82
2021/11/14 00:08:27;;;;;;;72.38;34.80;;;;;;;0.71;98.35;93429.06;5071029;28;20515;-81
2021/11/14 00:10:57;;;;;;;68.85;34.55;;;;;;;0.86;98.28;93456.34;5071830;28;20098;-81
2021/11/14 00:13:26;;;;;;;82.38;37.40;;;;;;;0.80;99.12;93458.53;5071912;28;20067;-81
2021/11/14 00:15:53;;;;;;;64.97;34.97;;;;;;;0.82;98.78;93453.31;5071665;28;20052;-81
2021/11/14 00:18:20;;;;;;;75.35;38.70;;;;;;;0.62;99.94;93442.53;5071598;28;20105;-80
2021/11/14 00:20:48;;;;;;;69.72;36.50;;;;;;;0.77;99.54;93447.91;5071464;28;20045;-78
2021/11/14 00:23:16;;;;;;;71.30;36.35;;;;;;;0.78;99.51;93436.84;5071266;28;20047;-78
2021/11/14 00:25:43;;;;;;;74.10;35.55;;;;;;;0.92;99.08;93459.13;5071230;28;20055;-78
2021/11/14 00:28:10;;;;;;;73.07;37.45;;;;;;;0.87;98.68;93460.47;5071547;28;20048;-78
2021/11/14 00:30:39;;;;;;;66.47;34.83;;;;;;;0.81;98.70;93459.31;5071429;28;20040;-77
2021/11/14 00:33:06;;;;;;;72.53;35.67;;;;;;;0.84;99.15;93458.25;5071029;28;20048;-77
2021/11/14 00:35:33;;;;;;;64.80;34.63;;;;;;;0.86;98.63;93463.94;5071386;28;20056;-77
2021/11/14 00:38:01;;;;;;;66.50;35.17;;;;;;;0.64;98.55;93433.06;5071415;28;20561;-77
2021/11/14 00:40:31;;;;;;;68.30;35.15;;;;;;;0.82;99.01;93455.84;5071099;28;20456;-80
2021/11/14 00:42:59;;;;;;;58.28;32.50;;;;;;;0.89;98.35;93454.34;5071339;28;20052;-79
2021/11/14 00:45:28;;;;;;;58.53;29.60;;;;;;;0.70;97.52;93430.00;5071530;28;20090;-80
2021/11/14 00:47:57;;;;;;;55.08;28.83;;;;;;;0.92;97.76;93465.91;5071082;28;20419;-80
2021/11/14 00:50:24;;;;;;;47.75;24.70;;;;;;;0.90;97.21;93463.53;5071034;28;20125;-79
2021/11/14 00:52:51;;;;;;;40.92;22.02;;;;;;;0.79;96.49;93456.94;5070952;28;20040;-80
2021/11/14 00:55:20;;;;;;;44.42;23.38;;;;;;;0.72;96.74;93460.19;5070585;28;20045;-79
2021/11/14 00:57:47;;;;;;;40.85;22.73;;;;;;;0.77;97.28;93465.59;5070653;28;20079;-78
2021/11/14 01:00:18;;;;;;;31.35;17.27;;;;;;;0.72;96.18;93467.75;5070955;28;20044;-78
2021/11/14 01:02:45;;;;;;;24.65;15.90;;;;;;;0.61;96.45;93464.50;5070466;28;20056;-78
2021/11/14 01:05:15;;;;;;;24.35;14.40;;;;;;;0.46;96.75;93463.41;5070508;28;20048;-78
2021/11/14 01:07:42;;;;;;;33.40;16.45;;;;;;;0.49;98.38;93466.44;5070613;28;20052;-78
2021/11/14 01:10:12;;;;;;;24.48;15.20;;;;;;;0.45;97.90;93455.00;5070288;28;20051;-78
2021/11/14 01:12:39;;;;;;;23.27;13.57;;;;;;;0.54;97.91;93453.38;5070322;28;20044;-78
2021/11/14 01:15:08;;;;;;;21.77;13.00;;;;;;;0.54;97.32;93460.94;5070541;28;20048;-78
2021/11/14 01:17:38;;;;;;;21.42;11.85;;;;;;;0.47;97.46;93448.06;5070483;28;20100;-78
2021/11/14 01:20:08;;;;;;;18.00;10.90;;;;;;;0.51;96.44;93453.66;5069376;28;20063;-78
2021/11/14 01:22:37;;;;;;;20.55;10.85;;;;;;;0.36;96.08;93428.06;5070371;28;20063;-78
2021/11/14 01:25:04;;;;;;;17.83;10.15;;;;;;;0.53;96.36;93450.06;5070452;28;20419;-78
2021/11/14 01:27:32;;;;;;;18.73;10.60;;;;;;;0.45;96.07;93457.53;5069870;28;20048;-77
2021/11/14 01:29:59;;;;;;;16.40;10.07;;;;;;;0.41;97.06;93456.22;5069910;28;20048;-78
2021/11/14 01:32:26;;;;;;;14.88;9.65;;;;;;;0.39;97.67;93455.59;5069939;28;20454;-77
2021/11/14 01:34:52;;;;;;;14.65;9.75;;;;;;;0.29;97.26;93443.00;5069894;28;20051;-77
2021/11/14 01:37:19;;;;;;;15.02;9.48;;;;;;;0.14;96.70;93437.63;5069911;28;20541;-77
2021/11/14 01:39:47;;;;;;;15.15;10.10;;;;;;;0.18;97.22;93443.97;5069843;28;20048;-78
2021/11/14 01:42:14;;;;;;;27.00;14.27;;;;;;;0.06;98.13;93437.50;5070113;28;20059;-78
2021/11/14 01:44:41;;;;;;;21.95;13.18;;;;;;;-0.11;98.88;93409.53;5069487;28;20060;-77
2021/11/14 01:47:08;;;;;;;23.38;12.60;;;;;;;0.10;98.59;93437.09;5069759;28;20067;-78
2021/11/14 01:49:35;;;;;;;18.75;11.70;;;;;;;0.15;98.98;93440.94;5069996;28;20045;-77
2021/11/14 01:52:02;;;;;;;17.13;10.57;;;;;;;0.18;98.13;93436.38;5069574;28;20052;-77
2021/11/14 01:54:29;;;;;;;29.00;15.50;;;;;;;0.15;98.35;93440.94;5069785;28;20458;-77
2021/11/14 01:56:57;;;;;;;23.95;14.07;;;;;;;0.15;98.37;93443.47;5070048;28;20411;-77
2021/11/14 01:59:24;;;;;;;21.83;13.43;;;;;;;-0.08;98.51;93409.28;5069637;28;20052;-77
2021/11/14 02:01:52;;;;;;;20.65;11.98;;;;;;;0.17;98.62;93439.06;5069624;28;20076;-78
2021/11/14 02:04:19;;;;;;;18.27;11.05;;;;;;;0.16;98.47;93437.47;5069536;28;20052;-77
2021/11/14 02:06:47;;;;;;;17.55;10.40;;;;;;;0.03;97.95;93415.84;5069480;28;20143;-77
2021/11/14 02:09:15;;;;;;;15.43;9.82;;;;;;;0.12;97.64;93437.75;5069737;28;20139;-78
2021/11/14 02:11:42;;;;;;;19.35;10.57;;;;;;;0.13;98.17;93434.28;5069701;28;20049;-77
2021/11/14 02:14:10;;;;;;;19.02;12.02;;;;;;;0.01;98.38;93421.97;5069454;28;20056;-78
2021/11/14 02:16:37;;;;;;;20.60;12.05;;;;;;;0.10;98.11;93434.56;5069559;28;20079;-78
2021/11/14 02:19:04;;;;;;;17.70;11.25;;;;;;;0.12;98.18;93440.28;5069746;28;20057;-77
2021/11/14 02:21:33;;;;;;;19.90;11.13;;;;;;;0.15;98.08;93438.41;5069277;28;20106;-78
2021/11/14 02:24:00;;;;;;;22.98;13.13;;;;;;;0.08;98.25;93433.09;5069485;28;20110;-78
2021/11/14 02:26:27;;;;;;;23.27;13.13;;;;;;;0.07;99.05;93439.91;5069299;28;20055;-77
2021/11/14 02:28:54;;;;;;;23.65;14.23;;;;;;;0.06;98.97;93437.50;5069416;28;20040;-77
2021/11/14 02:31:23;;;;;;;22.60;13.23;;;;;;;0.11;99.17;93440.41;5068854;28;20053;-77
2021/11/14 02:33:50;;;;;;;24.08;13.50;;;;;;;0.01;99.12;93432.09;5068898;28;20098;-78
2021/11/14 02:36:18;;;;;;;25.67;14.30;;;;;;;-0.26;100.00;93406.69;5069073;28;20040;-78
2021/11/14 02:38:47;;;;;;;20.90;12.63;;;;;;;-0.28;100.00;93429.53;5069237;28;20048;-78
2021/11/14 02:41:14;;;;;;;23.15;12.60;;;;;;;-0.08;100.00;93437.06;5069061;28;20722;-77
2021/11/14 02:43:44;;;;;;;23.35;13.98;;;;;;;-0.08;100.00;93437.06;5069205;28;20084;-77
2021/11/14 02:46:12;;;;;;;26.27;16.90;;;;;;;-0.19;100.00;93437.22;5069615;28;20048;-77
2021/11/14 02:48:39;;;;;;;27.65;16.30;;;;;;;-0.06;100.00;93439.41;5069257;28;20048;-78
2021/11/14 02:51:09;;;;;;;24.80;15.55;;;;;;;-0.08;100.00;93437.06;5069259;28;20098;-77
2021/11/14 02:53:36;;;;;;;24.85;15.25;;;;;;;-0.11;100.00;93428.94;5069145;28;20118;-77
2021/11/14 02:56:05;;;;;;;26.35;15.27;;;;;;;-0.06;100.00;93439.41;5068881;28;20052;-77
2021/11/14 02:58:33;;;;;;;23.70;14.73;;;;;;;-0.03;100.00;93451.78;5068795;28;20492;-77
2021/11/14 03:01:03;;;;;;;26.27;15.88;;;;;;;-0.08;100.00;93433.72;5069131;28;20053;-77
2021/11/14 03:03:31;;;;;;;27.55;17.38;;;;;;;-0.04;100.00;93447.66;5068743;28;20558;-77
2021/11/14 03:05:59;;;;;;;33.78;22.90;;;;;;;-0.18;100.00;93441.34;5069142;28;20126;-78
2021/11/14 03:08:26;;;;;;;28.23;19.98;;;;;;;-0.33;100.00;93441.75;5069144;28;20052;-77
2021/11/14 03:10:53;;;;;;;27.55;18.10;;;;;;;-0.36;100.00;93439.53;5069172;28;20408;-77
2021/11/14 03:13:23;;;;;;;27.23;17.77;;;;;;;-0.22;100.00;93445.06;5068972;28;20102;-77
2021/11/14 03:15:53;;;;;;;28.27;16.15;;;;;;;-0.18;100.00;93447.16;5068812;28;20049;-77
2021/11/14 03:18:21;;;;;;;21.60;14.15;;;;;;;-0.39;100.00;93421.31;5069141;28;20143;-77
2021/11/14 03:20:50;;;;;;;23.90;13.90;;;;;;;-0.17;100.00;93448.78;5068626;28;20052;-77
2021/11/14 03:23:18;;;;;;;18.83;13.05;;;;;;;-0.17;100.00;93442.91;5068682;28;20052;-77
2021/11/14 03:25:44;;;;;;;27.83;16.60;;;;;;;-0.13;99.99;93444.25;5068733;28;20063;-77
2021/11/14 03:28:12;;;;;;;24.80;14.73;;;;;;;-0.15;98.90;93441.03;5068421;28;20052;-77
2021/11/14 03:30:41;;;;;;;23.55;14.02;;;;;;;-0.22;99.50;93440.00;5068907;28;20044;-77
2021/11/14 03:33:11;;;;;;;21.73;13.90;;;;;;;-0.25;100.00;93446.13;5068432;28;20566;-77
2021/11/14 03:35:41;;;;;;;31.58;17.35;;;;;;;-0.30;99.30;93445.75;5068858;28;20430;-77
2021/11/14 03:38:09;;;;;;;27.05;17.00;;;;;;;-0.39;100.00;93442.31;5068654;28;20099;-77
2021/11/14 03:40:36;;;;;;;27.52;16.45;;;;;;;-0.42;100.00;93450.94;5068885;28;20443;-77
2021/11/14 03:43:03;;;;;;;26.27;16.27;;;;;;;-0.42;100.00;93445.09;5070558;28;20052;-77
2021/11/14 03:45:31;;;;;;;33.10;20.45;;;;;;;-0.46;100.00;93443.81;5072099;28;20052;-77
2021/11/14 03:48:00;;;;;;;26.52;16.50;;;;;;;-0.38;100.00;93448.16;5072444;28;20048;-77
2021/11/14 03:50:28;;;;;;;26.05;15.60;;;;;;;-0.71;100.00;93398.81;5072155;28;20121;-76
2021/11/14 03:52:55;;;;;;;22.20;13.93;;;;;;;-0.47;100.00;93448.03;5071787;28;20045;-76
2021/11/14 03:55:22;;;;;;;26.23;14.80;;;;;;;-0.48;100.00;93450.69;5071920;28;20051;-76
2021/11/14 03:57:50;;;;;;;21.92;13.27;;;;;;;-0.65;100.00;93429.50;5071558;28;20044;-77
2021/11/14 04:00:19;;;;;;;24.15;14.48;;;;;;;-0.56;100.00;93443.78;5072121;28;20074;-76
2021/11/14 04:02:48;;;;;;;22.70;13.57;;;;;;;-0.55;100.00;93446.19;5072092;28;20045;-76
2021/11/14 04:05:16;;;;;;;19.63;12.68;;;;;;;-0.63;100.00;93437.72;5071973;28;20072;-76
2021/11/14 04:07:43;;;;;;;24.20;13.95;;;;;;;-0.64;100.00;93452.06;5071883;28;20114;-76
2021/11/14 04:10:11;;;;;;;29.00;15.90;;;;;;;-0.74;100.00;93448.75;5071727;28;20044;-77
2021/11/14 04:12:38;;;;;;;27.00;16.67;;;;;;;-0.88;100.00;93430.56;5071562;28;20504;-77
2021/11/14 04:15:07;;;;;;;26.45;14.95;;;;;;;-0.74;100.00;93444.50;5071818;28;20446;-77
2021/11/14 04:17:34;;;;;;;28.48;16.17;;;;;;;-0.67;100.00;93452.31;5071546;28;20066;-76
2021/11/14 04:20:01;;;;;;;26.73;16.00;;;;;;;-0.65;100.00;93452.19;5071436;28;20056;-77
2021/11/14 04:22:29;;;;;;;26.95;15.73;;;;;;;-0.57;100.00;93453.13;5071168;28;20045;-77
2021/11/14 04:24:56;;;;;;;25.38;15.32;;;;;;;-0.51;100.00;93446.72;5071362;28;20045;-76
2021/11/14 04:27:23;;;;;;;25.48;16.23;;;;;;;-0.44;100.00;93454.53;5071536;28;20056;-76
2021/11/14 04:29:50;;;;;;;26.45;16.08;;;;;;;-0.49;100.00;93447.38;5071054;28;20044;-76
2021/11/14 04:32:17;;;;;;;28.30;16.65;;;;;;;-0.68;100.00;93416.19;5071077;28;20044;-76
2021/11/14 04:34:43;;;;;;;28.05;18.00;;;;;;;-0.64;99.27;93423.50;5071081;28;20048;-77
2021/11/14 04:37:10;;;;;;;32.60;19.85;;;;;;;-0.70;98.51;93438.25;5070908;28;20041;-77
2021/11/14 04:39:39;;;;;;;35.25;21.88;;;;;;;-0.68;99.68;93441.44;5071187;28;20044;-77
2021/11/14 04:42:07;;;;;;;60.85;30.65;;;;;;;-0.64;99.70;93446.22;5071436;28;20052;-76
2021/11/14 04:44:35;;;;;;;46.35;25.00;;;;;;;-0.71;99.62;93438.38;5071029;28;20052;-77
2021/11/14 04:47:03;;;;;;;39.10;21.20;;;;;;;-0.64;99.47;93447.03;5071209;28;20673;-77
2021/11/14 04:49:30;;;;;;;30.50;17.88;;;;;;;-0.77;99.74;93436.41;5070902;28;20045;-76
2021/11/14 04:51:57;;;;;;;26.88;16.35;;;;;;;-0.83;100.00;93440.28;5071127;28;20090;-76
2021/11/14 04:54:24;;;;;;;29.95;17.92;;;;;;;-0.72;100.00;93455.25;5070521;28;20056;-77
2021/11/14 04:56:53;;;;;;;28.52;15.98;;;;;;;-0.72;100.00;93465.34;5070521;28;20040;-77
2021/11/14 04:59:20;;;;;;;28.98;16.38;;;;;;;-0.81;100.00;93440.91;5070905;28;20041;-76
2021/11/14 05:01:47;;;;;;;29.90;17.52;;;;;;;-0.71;100.00;93463.59;5070873;28;20076;-76
2021/11/14 05:04:15;;;;;;;43.33;24.23;;;;;;;-0.77;100.00;93457.38;5070808;28;20048;-76
2021/11/14 05:06:41;;;;;;;39.10;23.30;;;;;;;-0.95;100.00;93467.34;5070432;28;20049;-76
2021/11/14 05:09:09;;;;;;;32.95;20.33;;;;;;;-0.85;100.00;93472.38;5070187;28;20049;-77
2021/11/14 05:11:36;;;;;;;35.78;20.60;;;;;;;-0.78;100.00;93481.03;5070194;28;20052;-77
2021/11/14 05:14:04;;;;;;;37.53;20.25;;;;;;;-0.90;100.00;93464.41;5029390;28;20041;-77
2021/11/14 05:16:31;;;;;;;37.15;19.75;;;;;;;-0.79;100.00;93481.16;5057343;28;20100;-76
2021/11/14 05:18:58;;;;;;;35.67;18.52;;;;;;;-0.82;100.00;93477.16;5046722;28;20056;-77
2021/11/14 05:21:25;;;;;;;33.50;18.48;;;;;;;-0.77;100.00;93487.66;5047403;28;20052;-77
2021/11/14 05:23:52;;;;;;;34.90;18.10;;;;;;;-0.79;100.00;93492.03;5049360;28;20091;-76
2021/11/14 05:26:19;;;;;;;40.75;21.90;;;;;;;-0.80;100.00;93485.38;5047183;28;20056;-77
2021/11/14 05:28:46;;;;;;;36.25;20.75;;;;;;;-0.93;100.00;93488.16;5043442;28;20053;-77
2021/11/14 05:31:14;;;;;;;34.80;20.42;;;;;;;-0.98;100.00;93488.56;5045662;28;20393;-76
2021/11/14 05:33:41;;;;;;;35.72;20.17;;;;;;;-1.05;100.00;93486.72;5045940;28;20040;-77
2021/11/14 05:36:08;;;;;;;43.45;22.52;;;;;;;-1.24;100.00;93448.75;5045654;28;20045;-77
2021/11/14 05:38:34;;;;;;;36.20;20.88;;;;;;;-0.90;100.00;93503.06;5045981;28;20102;-78
2021/11/14 05:41:01;;;;;;;35.58;19.83;;;;;;;-0.93;100.00;93494.94;5045391;28;20900;-77
2021/11/14 05:43:28;;;;;;;30.65;17.80;;;;;;;-0.86;100.00;93506.09;5045722;28;20106;-77
2021/11/14 05:45:55;;;;;;;36.28;18.42;;;;;;;-0.80;100.00;93513.13;5045435;28;20052;-77
2021/11/14 05:48:23;;;;;;;30.50;17.25;;;;;;;-0.78;100.00;93516.34;5045504;28;20064;-78
2021/11/14 05:50:50;;;;;;;44.13;26.17;;;;;;;-0.85;100.00;93510.22;5045777;28;20064;-77
2021/11/14 05:53:17;;;;;;;41.78;23.20;;;;;;;-0.88;100.00;93513.00;5045429;28;20049;-77
2021/11/14 05:55:44;;;;;;;46.85;26.55;;;;;;;-1.03;100.00;93494.97;5045635;28;20094;-77
2021/11/14 05:58:12;;;;;;;45.97;25.50;;;;;;;-0.83;100.00;93520.97;5045257;28;20060;-78
2021/11/14 06:00:47;;;;;;;48.30;26.20;;;;;;;-0.91;100.00;93509.03;5045741;28;20047;-77
2021/11/14 06:03:24;;;;;;;69.68;42.25;;;;;;;-0.91;100.00;93523.34;5045524;28;20056;-78
2021/11/14 06:05:53;;;;;;;105.82;57.20;;;;;;;-1.10;100.00;93509.81;5044679;28;20045;-78
2021/11/14 06:08:24;;;;;;;66.32;38.45;;;;;;;-1.02;100.00;93521.75;5045082;28;20493;-77
2021/11/14 06:10:52;;;;;;;68.68;39.47;;;;;;;-0.95;100.00;93527.88;5045018;28;20036;-78
2021/11/14 06:13:20;;;;;;;78.22;45.17;;;;;;;-0.90;100.00;93532.50;5044826;28;20740;-78
2021/11/14 06:15:48;;;;;;;72.40;41.22;;;;;;;-0.83;100.00;93516.72;5045022;28;20849;-79
2021/11/14 06:18:14;;;;;;;68.43;38.38;;;;;;;-0.58;100.00;93533.97;5044478;28;20079;-77
2021/11/14 06:20:43;;;;;;;83.55;42.35;;;;;;;-0.51;100.00;93526.69;5045156;28;20508;-78
2021/11/14 06:23:13;;;;;;;90.90;47.15;;;;;;;-0.48;100.00;93531.44;5045109;28;20053;-77
2021/11/14 06:25:40;;;;;;;86.72;44.15;;;;;;;-0.61;100.00;93522.44;5044987;28;20048;-77
2021/11/14 06:28:08;;;;;;;78.10;42.40;;;;;;;-0.37;100.00;93526.25;5045167;28;20061;-78
2021/11/14 06:30:36;;;;;;;82.10;43.97;;;;;;;-0.36;100.00;93505.16;5045229;28;20508;-78
2021/11/14 06:33:03;;;;;;;78.38;40.58;;;;;;;-0.19;100.00;93507.91;5045120;28;20052;-77
2021/11/14 06:35:30;;;;;;;72.28;39.88;;;;;;;-0.07;100.00;93516.91;5044469;28;20652;-78
2021/11/14 06:37:57;;;;;;;74.55;40.25;;;;;;;0.13;100.00;93527.75;5044800;28;20459;-78
2021/11/14 06:40:26;;;;;;;77.97;42.20;;;;;;;0.30;100.00;93527.16;5044614;28;21030;-78
2021/11/14 06:42:53;;;;;;;94.75;48.22;;;;;;;0.40;100.00;93530.47;5044663;28;20489;-78
2021/11/14 06:45:20;;;;;;;86.68;45.13;;;;;;;0.48;100.00;93524.72;5044503;28;20041;-78
2021/11/14 06:47:46;;;;;;;91.82;52.03;;;;;;;0.53;100.00;93525.91;5044912;28;20048;-78
2021/11/14 06:50:15;;;;;;;61.65;34.92;;;;;;;0.66;100.00;93523.00;5044861;28;20110;-78
2021/11/14 06:52:43;;;;;;;72.25;38.55;;;;;;;0.78;100.00;93522.81;5044984;28;20059;-78
2021/11/14 06:55:12;;;;;;;79.43;41.47;;;;;;;0.92;100.00;93531.66;5044674;28;20052;-78
2021/11/14 06:57:40;;;;;;;85.95;45.55;;;;;;;1.03;100.00;93518.81;5044624;28;20060;-77
2021/11/14 07:00:09;;;;;;;79.15;44.67;;;;;;;1.19;100.00;93519.91;5044794;28;20083;-77
2021/11/14 07:02:36;;;;;;;79.05;44.20;;;;;;;1.32;98.24;93519.56;5044973;28;20080;-78
2021/11/14 07:05:03;;;;;;;63.75;38.42;;;;;;;1.35;98.36;93513.41;5044693;28;20044;-78
2021/11/14 07:07:30;;;;;;;63.70;33.90;;;;;;;1.43;98.65;93513.50;5044385;28;20041;-78
2021/11/14 07:09:57;;;;;;;55.15;32.17;;;;;;;1.51;98.00;93525.41;5044345;28;20045;-78
2021/11/14 07:12:26;;;;;;;52.55;28.63;;;;;;;1.59;97.88;93523.72;5044471;28;20045;-78
2021/11/14 07:14:54;;;;;;;50.08;28.88;;;;;;;1.61;100.00;93513.44;5045132;28;20408;-78
2021/11/14 07:17:22;;;;;;;44.17;25.25;;;;;;;1.57;100.00;93524.84;5045337;28;20060;-78
2021/11/14 07:19:49;;;;;;;48.17;25.52;;;;;;;1.59;100.00;93522.94;5048372;28;20045;-78
2021/11/14 07:22:16;;;;;;;52.00;29.42;;;;;;;1.72;99.60;93523.34;5048254;28;20095;-78
2021/11/14 07:24:43;;;;;;;48.80;26.73;;;;;;;1.63;100.00;93524.25;5048042;28;20045;-78
2021/11/14 07:27:09;;;;;;;47.85;24.98;;;;;;;1.83;98.89;93522.31;5048169;28;20049;-79
2021/11/14 07:29:36;;;;;;;48.60;25.88;;;;;;;1.89;100.00;93526.00;5048283;28;20470;-79
2021/11/14 07:32:06;;;;;;;54.40;27.75;;;;;;;2.00;100.00;93530.03;5048107;28;20048;-78
2021/11/14 07:34:32;;;;;;;51.00;28.25;;;;;;;2.11;99.87;93521.38;5047822;28;20550;-79
2021/11/14 07:36:59;;;;;;;52.05;26.48;;;;;;;2.27;97.56;93524.00;5047795;28;20048;-79
2021/11/14 07:39:26;;;;;;;55.05;28.30;;;;;;;2.31;98.48;93523.72;5048000;28;20048;-79
2021/11/14 07:41:53;;;;;;;53.75;28.17;;;;;;;2.43;98.27;93511.53;5049178;28;20049;-79
2021/11/14 07:44:20;;;;;;;50.13;26.25;;;;;;;2.42;100.00;93509.97;5048678;28;20037;-79
2021/11/14 07:46:47;;;;;;;48.42;25.63;;;;;;;2.49;100.00;93496.53;5048172;28;20064;-80
2021/11/14 07:49:15;;;;;;;51.72;27.48;;;;;;;2.75;100.00;93512.63;5047892;28;20041;-80
2021/11/14 07:51:42;;;;;;;52.50;30.20;;;;;;;2.23;100.00;93418.00;5047449;28;20049;-81
2021/11/14 07:54:09;;;;;;;52.75;30.85;;;;;;;2.90;100.00;93493.31;5047947;28;20052;-82
2021/11/14 07:56:36;;;;;;;52.58;30.50;;;;;;;3.14;100.00;93516.38;5047987;28;20041;-81
2021/11/14 07:59:04;;;;;;;51.30;30.50;;;;;;;2.86;100.00;93478.59;5047731;28;20049;-82
2021/11/14 08:01:31;;;;;;;49.10;28.70;;;;;;;3.26;100.00;93507.50;5047129;28;20095;-82
2021/11/14 08:03:58;;;;;;;49.83;30.15;;;;;;;3.31;99.96;93502.75;5047774;28;20198;-82
2021/11/14 08:06:26;;;;;;;50.47;28.33;;;;;;;3.43;99.02;93507.53;5047237;28;20095;-81
2021/11/14 08:08:53;;;;;;;50.65;28.00;;;;;;;3.32;100.00;93509.41;5047133;28;20068;-81
2021/11/14 08:11:20;;;;;;;55.47;31.45;;;;;;;2.99;100.00;93476.38;5047050;28;20052;-81
2021/11/14 08:13:47;;;;;;;59.85;32.75;;;;;;;3.10;100.00;93490.50;5047277;28;20439;-81
2021/11/14 08:16:14;;;;;;;58.50;33.35;;;;;;;3.17;100.00;93483.06;5046923;28;20060;-81
2021/11/14 08:18:40;;;;;;;53.05;31.33;;;;;;;3.21;100.00;93451.34;5046875;28;20057;-81
2021/11/14 08:21:07;;;;;;;47.05;23.88;;;;;;;3.55;97.82;93502.91;5047078;28;20855;-81
2021/11/14 08:23:36;;;;;;;39.55;23.90;;;;;;;3.67;96.77;93508.47;5047117;28;20051;-81
2021/11/14 08:26:03;;;;;;;49.92;28.02;;;;;;;3.74;98.63;93510.22;5047099;28;20048;-81
2021/11/14 08:28:30;;;;;;;52.90;29.38;;;;;;;3.82;98.70;93498.44;5046156;28;20447;-81
2021/11/14 08:30:57;;;;;;;44.63;24.15;;;;;;;3.91;98.39;93502.56;5046619;28;20052;-81
2021/11/14 08:33:25;;;;;;;42.33;25.13;;;;;;;4.01;98.48;93485.41;5046816;28;20049;-81
2021/11/14 08:35:52;;;;;;;60.65;28.85;;;;;;;4.41;98.17;93498.16;5046748;28;20057;-81
2021/11/14 08:38:19;;;;;;;51.97;27.67;;;;;;;4.67;97.46;93504.75;5046930;28;20049;-81
2021/11/14 08:40:47;;;;;;;56.20;30.30;;;;;;;4.89;94.76;93509.25;5046880;28;20056;-81
2021/11/14 08:43:14;;;;;;;53.45;29.02;;;;;;;5.02;94.84;93493.44;5046639;28;20049;-82
2021/11/14 08:45:42;;;;;;;51.85;29.30;;;;;;;5.40;94.56;93510.53;5046496;28;20408;-81
2021/11/14 08:48:09;;;;;;;53.28;26.17;;;;;;;5.30;91.78;93464.94;5046632;28;20053;-81
2021/11/14 08:50:36;;;;;;;57.85;30.75;;;;;;;5.69;90.87;93504.75;5046385;28;20049;-82
2021/11/14 08:53:03;;;;;;;58.67;31.83;;;;;;;5.80;89.94;93488.28;5046511;28;20049;-82
2021/11/14 08:55:31;;;;;;;62.20;32.80;;;;;;;6.03;89.60;93496.84;5046069;28;20454;-82
2021/11/14 08:58:01;;;;;;;62.25;34.22;;;;;;;6.27;90.68;93495.81;5046687;28;20041;-82
2021/11/14 09:00:31;;;;;;;68.43;33.95;;;;;;;6.41;89.20;93469.53;5046454;28;20049;-82
2021/11/14 09:02:59;;;;;;;63.88;32.17;;;;;;;6.75;88.06;93481.88;5046316;28;20094;-82
2021/11/14 09:05:28;;;;;;;56.15;31.25;;;;;;;6.76;85.17;93491.13;5047179;28;20138;-82
2021/11/14 09:07:56;;;;;;;54.42;29.83;;;;;;;6.66;84.40;93471.75;5046841;28;20138;-81
2021/11/14 09:10:24;;;;;;;64.30;31.15;;;;;;;7.04;84.56;93495.56;5046094;28;20049;-81
2021/11/14 09:12:51;;;;;;;60.75;29.67;;;;;;;6.96;84.17;93460.69;5046052;28;20059;-81
2021/11/14 09:15:24;;;;;;;63.90;30.30;;;;;;;7.33;83.91;93489.53;5046042;28;20044;-82
2021/11/14 09:17:51;;;;;;;55.50;29.33;;;;;;;7.40;84.59;93478.63;5045936;28;20452;-82
2021/11/14 09:20:18;;;;;;;56.00;27.40;;;;;;;7.47;82.55;93472.59;5045953;28;20555;-82
2021/11/14 09:22:45;;;;;;;51.72;26.83;;;;;;;7.67;81.85;93482.16;5046333;28;20162;-82
2021/11/14 09:25:15;;;;;;;50.53;24.80;;;;;;;7.37;81.48;93440.63;5046032;28;20128;-82
2021/11/14 09:27:42;;;;;;;46.33;23.65;;;;;;;7.66;82.13;93497.69;5046393;28;20053;-82
2021/11/14 09:30:10;;;;;;;44.83;22.15;;;;;;;7.56;83.20;93487.78;5045961;28;20099;-82
2021/11/14 09:32:39;;;;;;;39.53;21.67;;;;;;;7.55;83.29;93458.84;5045948;28;20045;-82
2021/11/14 09:35:07;;;;;;;35.13;20.40;;;;;;;7.60;83.10;93463.44;5045952;28;20049;-81
2021/11/14 09:37:34;;;;;;;34.65;18.90;;;;;;;7.95;82.73;93476.28;5045968;28;20581;-81
2021/11/14 09:40:01;;;;;;;32.95;19.50;;;;;;;7.65;83.22;93470.53;5045107;28;20071;-81
2021/11/14 09:42:30;;;;;;;33.83;21.50;;;;;;;7.98;84.12;93478.47;5045509;28;20079;-81
2021/11/14 09:44:57;;;;;;;36.28;19.90;;;;;;;7.57;82.44;93458.69;5045376;28;20574;-81
2021/11/14 09:47:24;;;;;;;32.85;19.50;;;;;;;7.51;84.78;93423.63;5045896;28;20068;-81
2021/11/14 09:49:54;;;;;;;35.20;19.85;;;;;;;8.15;84.66;93466.16;5045227;28;20142;-81
2021/11/14 09:52:22;;;;;;;37.95;20.75;;;;;;;8.12;83.43;93420.50;5045469;28;20040;-81
2021/11/14 09:54:49;;;;;;;35.53;18.85;;;;;;;8.65;81.86;93465.25;5045558;28;20060;-81
2021/11/14 09:57:16;;;;;;;32.47;16.58;;;;;;;8.89;81.47;93457.28;5045179;28;20048;-81
2021/11/14 09:59:43;;;;;;;36.40;19.25;;;;;;;9.15;80.18;93456.53;5045410;28;20058;-81
2021/11/14 10:02:10;;;;;;;24.42;14.88;;;;;;;8.71;77.64;93421.94;5045498;28;20043;-81
2021/11/14 10:04:38;;;;;;;27.63;15.90;;;;;;;9.18;79.72;93453.59;5045481;28;20049;-81
2021/11/14 10:07:11;;;;;;;30.23;17.75;;;;;;;9.44;78.55;93448.69;5045501;28;20055;-81
2021/11/14 10:09:43;;;;;;;29.63;16.95;;;;;;;9.05;76.29;93382.63;5044703;28;20049;-81
2021/11/14 10:12:21;;;;;;;31.13;14.90;;;;;;;9.68;76.37;93439.59;5045113;28;20060;-81
2021/11/14 10:14:50;;;;;;;29.90;16.30;;;;;;;9.68;75.86;93431.13;5044822;28;20068;-81
2021/11/14 10:17:21;;;;;;;27.58;15.27;;;;;;;9.62;75.33;93430.16;5044776;28;20065;-81
2021/11/14 10:20:04;;;;;;;25.17;13.80;;;;;;;9.33;75.39;93421.84;5045142;28;20763;-81
2021/11/14 10:22:33;;;;;;;26.15;13.77;;;;;;;9.40;74.57;93427.78;5044729;28;20540;-82
2021/11/14 10:25:00;;;;;;;25.90;14.65;;;;;;;9.04;75.71;93408.41;5045277;28;20049;-82
2021/11/14 10:27:29;;;;;;;25.58;14.25;;;;;;;9.11;75.72;93423.81;5045778;28;20040;-81
2021/11/14 10:29:57;;;;;;;24.77;15.13;;;;;;;9.39;76.45;93417.72;5045790;28;20045;-81
2021/11/14 10:32:26;;;;;;;24.17;14.20;;;;;;;9.50;76.37;93409.44;5045381;28;20045;-82
2021/11/14 10:34:58;;;;;;;26.45;14.80;;;;;;;9.64;77.45;93382.03;5045169;28;20063;-82
2021/11/14 10:37:27;;;;;;;29.77;14.75;;;;;;;9.82;76.58;93376.25;5044674;28;20056;-82
2021/11/14 10:39:57;;;;;;;26.20;14.57;;;;;;;9.98;69.33;93387.06;5045066;28;20053;-82
2021/11/14 10:42:27;;;;;;;21.02;12.63;;;;;;;9.98;68.08;93377.63;5044667;28;20045;-82
2021/11/14 10:44:56;;;;;;;29.27;14.98;;;;;;;10.19;70.11;93388.63;5044865;28;20443;-83
2021/11/14 10:47:24;;;;;;;28.80;15.10;;;;;;;10.47;72.65;93384.19;5044254;28;20055;-82
2021/11/14 10:49:56;;;;;;;23.63;13.23;;;;;;;10.60;69.47;93378.22;5044839;28;20049;-82
2021/11/14 10:52:25;;;;;;;27.73;15.93;;;;;;;10.82;69.20;93374.34;5047071;28;21175;-83
2021/11/14 10:54:58;;;;;;;25.08;14.07;;;;;;;10.95;67.51;93367.53;5047755;28;20045;-84
2021/11/14 10:57:32;;;;;;;24.70;14.48;;;;;;;11.25;66.60;93381.56;5047865;28;20063;-86
2021/11/14 11:00:15;;;;;;;24.27;14.48;;;;;;;11.46;67.38;93386.38;5047555;28;20112;-84
2021/11/14 11:02:44;;;;;;;24.33;12.80;;;;;;;11.49;65.42;93380.78;5048042;28;20053;-85
2021/11/14 11:05:13;;;;;;;23.00;12.13;;;;;;;11.67;65.47;93374.09;5047885;28;20064;-83
2021/11/14 11:07:42;;;;;;;25.98;13.75;;;;;;;11.95;62.77;93382.38;5048736;28;20060;-82
2021/11/14 11:10:11;;;;;;;22.85;11.05;;;;;;;11.63;57.15;93378.88;5047901;28;20045;-83
2021/11/14 11:12:38;;;;;;;19.17;11.45;;;;;;;11.52;56.39;93355.66;5048189;28;20055;-82
2021/11/14 11:15:08;;;;;;;17.92;11.25;;;;;;;11.51;55.89;93372.84;5048328;28;20047;-84
2021/11/14 11:17:47;;;;;;;33.17;16.48;;;;;;;11.37;56.92;93364.47;5048020;28;20583;-84
2021/11/14 11:20:17;;;;;;;22.25;11.68;;;;;;;11.10;56.66;93354.38;5048566;28;20118;-85
2021/11/14 11:22:53;;;;;;;23.20;12.93;;;;;;;11.04;57.18;93322.59;5048447;28;20044;-84